sensor_id;sensor_type;location;lat;lon;timestamp;pressure;altitude;pressure_sealevel;temperature;humidity
21240;BME280;10778;48.962;9.018;2023-04-01T00:00:22;97691.09;;;8.59;83.38
21240;BME280;10778;48.962;9.018;2023-04-01T00:02:48;97684.22;;;8.58;82.72
21240;BME280;10778;48.962;9.018;2023-04-01T00:05:15;97681.28;;;8.61;82.98
21240;BME280;10778;48.962;9.018;2023-04-01T00:07:42;97680.97;;;8.72;81.81
21240;BME280;10778;48.962;9.018;2023-04-01T00:10:10;97680.47;;;8.68;82.25
21240;BME280;10778;48.962;9.018;2023-04-01T00:12:38;97684.41;;;8.73;81.82
21240;BME280;10778;48.962;9.018;2023-04-01T00:15:06;97695.06;;;8.79;81.17
21240;BME280;10778;48.962;9.018;2023-04-01T00:17:32;97692.63;;;8.86;80.79
21240;BME280;10778;48.962;9.018;2023-04-01T00:19:59;97692.31;;;8.89;81.03
21240;BME280;10778;48.962;9.018;2023-04-01T00:22:25;97698.53;;;8.88;81.34
21240;BME280;10778;48.962;9.018;2023-04-01T00:24:52;97692.47;;;8.96;80.50
21240;BME280;10778;48.962;9.018;2023-04-01T00:27:19;97700.81;;;8.83;81.68
21240;BME280;10778;48.962;9.018;2023-04-01T00:29:46;97696.75;;;8.89;81.41
21240;BME280;10778;48.962;9.018;2023-04-01T00:32:14;97694.13;;;8.97;80.47
21240;BME280;10778;48.962;9.018;2023-04-01T00:34:40;97698.22;;;9.00;79.92
21240;BME280;10778;48.962;9.018;2023-04-01T00:37:07;97702.66;;;8.91;81.13
21240;BME280;10778;48.962;9.018;2023-04-01T00:39:34;97701.00;;;8.98;80.67
21240;BME280;10778;48.962;9.018;2023-04-01T00:42:02;97697.72;;;8.96;80.78
21240;BME280;10778;48.962;9.018;2023-04-01T00:44:31;97700.38;;;9.04;79.40
21240;BME280;10778;48.962;9.018;2023-04-01T00:46:59;97695.44;;;9.01;79.80
21240;BME280;10778;48.962;9.018;2023-04-01T00:49:32;97694.13;;;8.97;80.56
21240;BME280;10778;48.962;9.018;2023-04-01T00:52:01;97691.03;;;9.10;78.78
21240;BME280;10778;48.962;9.018;2023-04-01T00:54:29;97698.41;;;9.06;78.87
21240;BME280;10778;48.962;9.018;2023-04-01T00:59:28;97686.41;;;9.04;80.06
21240;BME280;10778;48.962;9.018;2023-04-01T01:01:55;97688.88;;;9.05;79.90
21240;BME280;10778;48.962;9.018;2023-04-01T01:04:25;97687.91;;;9.06;79.77
21240;BME280;10778;48.962;9.018;2023-04-01T01:07:09;97688.72;;;9.07;79.84
21240;BME280;10778;48.962;9.018;2023-04-01T01:12:16;97687.25;;;9.04;79.69
21240;BME280;10778;48.962;9.018;2023-04-01T01:14:48;97691.66;;;9.04;80.13
21240;BME280;10778;48.962;9.018;2023-04-01T01:17:29;97700.19;;;9.06;79.97
21240;BME280;10778;48.962;9.018;2023-04-01T01:28:27;97683.31;;;9.08;78.86
21240;BME280;10778;48.962;9.018;2023-04-01T01:31:17;97693.31;;;9.05;79.69
21240;BME280;10778;48.962;9.018;2023-04-01T01:33:57;97683.31;;;9.08;78.61
21240;BME280;10778;48.962;9.018;2023-04-01T01:36:31;97697.56;;;9.06;78.65
21240;BME280;10778;48.962;9.018;2023-04-01T01:39:03;97684.78;;;9.11;78.30
21240;BME280;10778;48.962;9.018;2023-04-01T01:41:32;97676.56;;;9.06;78.94
21240;BME280;10778;48.962;9.018;2023-04-01T01:43:59;97690.19;;;9.09;78.76
21240;BME280;10778;48.962;9.018;2023-04-01T01:46:28;97680.38;;;9.03;79.81
21240;BME280;10778;48.962;9.018;2023-04-01T01:48:57;97685.63;;;9.03;78.73
21240;BME280;10778;48.962;9.018;2023-04-01T01:51:27;97678.91;;;9.09;78.40
21240;BME280;10778;48.962;9.018;2023-04-01T01:53:54;97698.41;;;9.06;78.24
21240;BME280;10778;48.962;9.018;2023-04-01T01:56:23;97687.06;;;9.06;77.67
21240;BME280;10778;48.962;9.018;2023-04-01T01:58:55;97688.72;;;9.15;77.03
21240;BME280;10778;48.962;9.018;2023-04-01T02:01:26;97664.63;;;9.11;77.15
21240;BME280;10778;48.962;9.018;2023-04-01T02:03:56;97670.34;;;9.07;76.99
21240;BME280;10778;48.962;9.018;2023-04-01T02:06:26;97671.50;;;9.04;76.80
21240;BME280;10778;48.962;9.018;2023-04-01T02:08:56;97675.28;;;9.10;76.39
21240;BME280;10778;48.962;9.018;2023-04-01T02:11:30;97672.50;;;9.03;77.37
21240;BME280;10778;48.962;9.018;2023-04-01T02:14:13;97662.47;;;9.07;76.46
21240;BME280;10778;48.962;9.018;2023-04-01T02:19:17;97687.56;;;8.93;77.69
21240;BME280;10778;48.962;9.018;2023-04-01T02:21:51;97681.84;;;8.98;78.12
21240;BME280;10778;48.962;9.018;2023-04-01T02:24:20;97689.34;;;8.84;79.00
21240;BME280;10778;48.962;9.018;2023-04-01T02:26:50;97687.06;;;8.81;79.56
21240;BME280;10778;48.962;9.018;2023-04-01T02:29:19;97681.31;;;8.77;79.62
21240;BME280;10778;48.962;9.018;2023-04-01T02:31:46;97690.50;;;8.73;80.23
21240;BME280;10778;48.962;9.018;2023-04-01T02:34:13;97680.00;;;8.73;80.84
21240;BME280;10778;48.962;9.018;2023-04-01T02:36:39;97697.53;;;8.73;80.47
21240;BME280;10778;48.962;9.018;2023-04-01T02:39:06;97685.38;;;8.72;80.28
21240;BME280;10778;48.962;9.018;2023-04-01T02:41:39;97692.94;;;8.66;80.97
21240;BME280;10778;48.962;9.018;2023-04-01T02:44:06;97695.72;;;8.73;79.27
21240;BME280;10778;48.962;9.018;2023-04-01T02:46:32;97691.28;;;8.65;79.83
21240;BME280;10778;48.962;9.018;2023-04-01T02:48:58;97698.34;;;8.73;79.25
21240;BME280;10778;48.962;9.018;2023-04-01T02:51:25;97693.91;;;8.65;80.22
21240;BME280;10778;48.962;9.018;2023-04-01T02:53:52;97689.31;;;8.59;80.84
21240;BME280;10778;48.962;9.018;2023-04-01T02:56:18;97687.84;;;8.57;80.87
21240;BME280;10778;48.962;9.018;2023-04-01T02:58:46;97680.44;;;8.52;81.41
21240;BME280;10778;48.962;9.018;2023-04-01T03:01:12;97678.19;;;8.57;80.86
21240;BME280;10778;48.962;9.018;2023-04-01T03:03:38;97684.03;;;8.51;81.19
21240;BME280;10778;48.962;9.018;2023-04-01T03:06:08;97687.44;;;8.43;82.02
21240;BME280;10778;48.962;9.018;2023-04-01T03:08:34;97683.16;;;8.42;81.22
21240;BME280;10778;48.962;9.018;2023-04-01T03:11:00;97690.41;;;8.48;80.09
21240;BME280;10778;48.962;9.018;2023-04-01T03:13:27;97695.47;;;8.42;81.07
21240;BME280;10778;48.962;9.018;2023-04-01T03:15:53;97679.09;;;8.48;80.55
21240;BME280;10778;48.962;9.018;2023-04-01T03:18:19;97688.41;;;8.42;81.79
21240;BME280;10778;48.962;9.018;2023-04-01T03:20:45;97691.03;;;8.42;81.04
21240;BME280;10778;48.962;9.018;2023-04-01T03:23:12;97686.94;;;8.39;81.38
21240;BME280;10778;48.962;9.018;2023-04-01T03:25:38;97689.19;;;8.34;82.03
21240;BME280;10778;48.962;9.018;2023-04-01T03:28:04;97687.56;;;8.33;82.14
21240;BME280;10778;48.962;9.018;2023-04-01T03:30:30;97693.47;;;8.35;81.22
21240;BME280;10778;48.962;9.018;2023-04-01T03:33:00;97688.88;;;8.29;82.09
21240;BME280;10778;48.962;9.018;2023-04-01T03:35:27;97694.38;;;8.18;82.79
21240;BME280;10778;48.962;9.018;2023-04-01T03:37:54;97682.78;;;8.20;82.79
21240;BME280;10778;48.962;9.018;2023-04-01T03:40:21;97681.47;;;8.24;82.15
21240;BME280;10778;48.962;9.018;2023-04-01T03:42:48;97675.31;;;7.99;83.81
21240;BME280;10778;48.962;9.018;2023-04-01T03:45:15;97679.09;;;8.05;83.67
21240;BME280;10778;48.962;9.018;2023-04-01T03:47:42;97684.50;;;8.03;84.16
21240;BME280;10778;48.962;9.018;2023-04-01T03:50:08;97686.25;;;7.94;84.53
21240;BME280;10778;48.962;9.018;2023-04-01T03:52:35;97687.22;;;7.85;85.17
21240;BME280;10778;48.962;9.018;2023-04-01T03:55:01;97683.59;;;7.86;85.85
21240;BME280;10778;48.962;9.018;2023-04-01T03:57:27;97681.13;;;7.85;85.92
21240;BME280;10778;48.962;9.018;2023-04-01T03:59:57;97684.28;;;7.88;85.18
21240;BME280;10778;48.962;9.018;2023-04-01T04:02:23;97678.56;;;7.93;85.30
21240;BME280;10778;48.962;9.018;2023-04-01T04:04:49;97683.94;;;7.91;85.32
21240;BME280;10778;48.962;9.018;2023-04-01T04:07:15;97667.47;;;7.99;84.75
21240;BME280;10778;48.962;9.018;2023-04-01T04:10:13;97672.03;;;7.97;85.52
21240;BME280;10778;48.962;9.018;2023-04-01T04:12:40;97678.25;;;7.96;85.49
21240;BME280;10778;48.962;9.018;2023-04-01T04:15:08;97672.09;;;8.05;84.69
21240;BME280;10778;48.962;9.018;2023-04-01T04:17:37;97671.09;;;8.06;84.54
21240;BME280;10778;48.962;9.018;2023-04-01T04:20:04;97671.91;;;8.07;84.28
21240;BME280;10778;48.962;9.018;2023-04-01T04:22:30;97662.72;;;8.03;84.79
21240;BME280;10778;48.962;9.018;2023-04-01T04:24:56;97668.50;;;8.06;83.94
21240;BME280;10778;48.962;9.018;2023-04-01T04:27:23;97669.50;;;8.14;83.55
21240;BME280;10778;48.962;9.018;2023-04-01T04:30:05;97672.16;;;8.22;82.28
21240;BME280;10778;48.962;9.018;2023-04-01T04:32:31;97669.03;;;8.26;82.82
21240;BME280;10778;48.962;9.018;2023-04-01T04:34:57;97665.09;;;8.22;82.71
21240;BME280;10778;48.962;9.018;2023-04-01T04:37:23;97660.00;;;8.21;82.82
21240;BME280;10778;48.962;9.018;2023-04-01T04:39:51;97664.63;;;8.27;81.46
21240;BME280;10778;48.962;9.018;2023-04-01T04:42:17;97662.16;;;8.25;81.10
21240;BME280;10778;48.962;9.018;2023-04-01T04:44:43;97662.16;;;8.25;81.33
21240;BME280;10778;48.962;9.018;2023-04-01T04:47:10;97665.44;;;8.28;81.05
21240;BME280;10778;48.962;9.018;2023-04-01T04:49:36;97660.19;;;8.28;80.87
21240;BME280;10778;48.962;9.018;2023-04-01T04:52:07;97666.78;;;8.40;79.76
21240;BME280;10778;48.962;9.018;2023-04-01T04:54:33;97657.75;;;8.34;80.41
21240;BME280;10778;48.962;9.018;2023-04-01T04:57:01;97650.91;;;8.42;79.20
21240;BME280;10778;48.962;9.018;2023-04-01T04:59:31;97650.91;;;8.42;79.51
21240;BME280;10778;48.962;9.018;2023-04-01T05:02:08;97650.09;;;8.41;78.98
21240;BME280;10778;48.962;9.018;2023-04-01T05:04:35;97650.56;;;8.36;79.32
21240;BME280;10778;48.962;9.018;2023-04-01T05:07:01;97661.72;;;8.47;78.69
21240;BME280;10778;48.962;9.018;2023-04-01T05:09:30;97653.34;;;8.43;79.16
21240;BME280;10778;48.962;9.018;2023-04-01T05:11:57;97655.00;;;8.36;78.96
21240;BME280;10778;48.962;9.018;2023-04-01T05:14:24;97655.13;;;8.34;80.28
21240;BME280;10778;48.962;9.018;2023-04-01T05:16:57;97656.78;;;8.35;79.27
21240;BME280;10778;48.962;9.018;2023-04-01T05:19:23;97654.81;;;8.37;79.44
21240;BME280;10778;48.962;9.018;2023-04-01T05:21:49;97655.66;;;8.46;78.48
21240;BME280;10778;48.962;9.018;2023-04-01T05:24:16;97654.34;;;8.42;79.23
21240;BME280;10778;48.962;9.018;2023-04-01T05:26:42;97650.81;;;8.51;78.94
21240;BME280;10778;48.962;9.018;2023-04-01T05:29:08;97642.25;;;8.49;79.81
21240;BME280;10778;48.962;9.018;2023-04-01T05:31:35;97637.22;;;8.56;79.12
21240;BME280;10778;48.962;9.018;2023-04-01T05:34:02;97628.50;;;8.64;78.35
21240;BME280;10778;48.962;9.018;2023-04-01T05:36:28;97624.75;;;8.58;78.38
21240;BME280;10778;48.962;9.018;2023-04-01T05:38:55;97635.06;;;8.60;79.65
21240;BME280;10778;48.962;9.018;2023-04-01T05:41:22;97624.91;;;8.57;79.85
21240;BME280;10778;48.962;9.018;2023-04-01T05:43:48;97631.28;;;8.54;80.50
21240;BME280;10778;48.962;9.018;2023-04-01T05:46:33;97629.69;;;8.61;80.09
21240;BME280;10778;48.962;9.018;2023-04-01T05:49:08;97629.84;;;8.60;80.36
21240;BME280;10778;48.962;9.018;2023-04-01T05:51:34;97627.22;;;8.60;80.78
21240;BME280;10778;48.962;9.018;2023-04-01T05:54:00;97630.16;;;8.57;80.24
21240;BME280;10778;48.962;9.018;2023-04-01T05:56:27;97638.53;;;8.60;80.58
21240;BME280;10778;48.962;9.018;2023-04-01T05:58:53;97636.06;;;8.59;80.88
21240;BME280;10778;48.962;9.018;2023-04-01T06:01:21;97634.91;;;8.61;80.29
21240;BME280;10778;48.962;9.018;2023-04-01T06:03:47;97631.81;;;8.66;81.01
21240;BME280;10778;48.962;9.018;2023-04-01T06:06:27;97639.84;;;8.73;81.04
21240;BME280;10778;48.962;9.018;2023-04-01T06:09:10;97635.41;;;8.81;80.74
21240;BME280;10778;48.962;9.018;2023-04-01T06:17:08;97642.16;;;8.76;82.73
21240;BME280;10778;48.962;9.018;2023-04-01T06:19:54;97648.22;;;8.85;81.89
21240;BME280;10778;48.962;9.018;2023-04-01T06:30:38;97645.25;;;8.71;83.59
21240;BME280;10778;48.962;9.018;2023-04-01T06:33:33;97643.63;;;8.70;83.47
21240;BME280;10778;48.962;9.018;2023-04-01T06:41:46;97643.28;;;8.81;83.79
21240;BME280;10778;48.962;9.018;2023-04-01T06:45:01;97648.88;;;8.70;84.29
21240;BME280;10778;48.962;9.018;2023-04-01T06:51:18;97650.66;;;8.61;84.81
21240;BME280;10778;48.962;9.018;2023-04-01T06:54:10;97657.06;;;8.67;85.77
21240;BME280;10778;48.962;9.018;2023-04-01T06:57:02;97654.25;;;8.68;85.59
21240;BME280;10778;48.962;9.018;2023-04-01T06:59:33;97659.16;;;8.63;86.00
21240;BME280;10778;48.962;9.018;2023-04-01T07:02:05;97656.03;;;8.60;85.10
21240;BME280;10778;48.962;9.018;2023-04-01T07:04:41;97656.72;;;8.70;84.95
21240;BME280;10778;48.962;9.018;2023-04-01T07:09:56;97654.09;;;8.70;84.73
21240;BME280;10778;48.962;9.018;2023-04-01T07:15:36;97659.69;;;8.67;84.84
21240;BME280;10778;48.962;9.018;2023-04-01T07:18:16;97658.22;;;8.81;84.74
21240;BME280;10778;48.962;9.018;2023-04-01T07:20:44;97661.50;;;8.75;85.20
21240;BME280;10778;48.962;9.018;2023-04-01T07:23:20;97659.53;;;8.77;85.31
21240;BME280;10778;48.962;9.018;2023-04-01T07:26:23;97655.44;;;8.82;84.96
21240;BME280;10778;48.962;9.018;2023-04-01T07:29:13;97658.53;;;8.86;85.26
21240;BME280;10778;48.962;9.018;2023-04-01T07:32:26;97654.28;;;9.02;84.79
21240;BME280;10778;48.962;9.018;2023-04-01T07:43:21;97667.06;;;9.46;84.14
21240;BME280;10778;48.962;9.018;2023-04-01T07:46:17;97673.31;;;9.29;82.04
21240;BME280;10778;48.962;9.018;2023-04-01T07:48:49;97677.38;;;9.31;83.87
21240;BME280;10778;48.962;9.018;2023-04-01T07:51:29;97663.75;;;9.52;82.89
21240;BME280;10778;48.962;9.018;2023-04-01T07:57:02;97676.38;;;9.49;83.96
21240;BME280;10778;48.962;9.018;2023-04-01T08:05:27;97672.59;;;9.68;82.93
21240;BME280;10778;48.962;9.018;2023-04-01T08:23:19;97692.16;;;9.16;85.92
21240;BME280;10778;48.962;9.018;2023-04-01T08:26:02;97705.59;;;8.88;87.98
21240;BME280;10778;48.962;9.018;2023-04-01T08:28:51;97701.34;;;8.95;90.08
21240;BME280;10778;48.962;9.018;2023-04-01T08:32:06;97701.16;;;8.88;91.64
21240;BME280;10778;48.962;9.018;2023-04-01T08:34:35;97685.59;;;8.95;93.40
21240;BME280;10778;48.962;9.018;2023-04-01T08:37:07;97694.44;;;8.86;93.35
21240;BME280;10778;48.962;9.018;2023-04-01T08:39:55;97696.94;;;8.44;94.93
21240;BME280;10778;48.962;9.018;2023-04-01T08:45:21;97700.00;;;8.23;98.93
21240;BME280;10778;48.962;9.018;2023-04-01T09:10:32;97692.44;;;8.79;92.74
21240;BME280;10778;48.962;9.018;2023-04-01T09:19:03;97694.81;;;8.99;89.98
21240;BME280;10778;48.962;9.018;2023-04-01T09:27:05;97705.44;;;8.98;87.42
21240;BME280;10778;48.962;9.018;2023-04-01T09:32:16;97703.13;;;9.03;86.79
21240;BME280;10778;48.962;9.018;2023-04-01T09:35:21;97699.06;;;9.08;84.52
21240;BME280;10778;48.962;9.018;2023-04-01T09:38:02;97695.78;;;9.06;82.49
21240;BME280;10778;48.962;9.018;2023-04-01T09:40:37;97704.63;;;9.22;82.74
21240;BME280;10778;48.962;9.018;2023-04-01T09:43:33;97701.69;;;9.25;83.28
21240;BME280;10778;48.962;9.018;2023-04-01T09:48:42;97703.16;;;9.28;82.34
21240;BME280;10778;48.962;9.018;2023-04-01T09:51:23;97705.13;;;9.25;81.49
21240;BME280;10778;48.962;9.018;2023-04-01T10:23:22;97721.34;;;9.29;80.31
21240;BME280;10778;48.962;9.018;2023-04-01T10:28:52;97710.53;;;9.49;80.82
21240;BME280;10778;48.962;9.018;2023-04-01T10:46:44;97711.34;;;9.58;79.20
21240;BME280;10778;48.962;9.018;2023-04-01T11:14:05;97727.41;;;9.71;79.56
21240;BME280;10778;48.962;9.018;2023-04-01T11:23:11;97735.44;;;9.86;79.21
21240;BME280;10778;48.962;9.018;2023-04-01T11:25:11;97720.75;;;10.08;78.62
21240;BME280;10778;48.962;9.018;2023-04-01T11:42:34;97739.78;;;10.27;76.78
21240;BME280;10778;48.962;9.018;2023-04-01T11:45:51;97751.53;;;10.39;77.09
21240;BME280;10778;48.962;9.018;2023-04-01T11:48:40;97745.72;;;10.04;76.66
21240;BME280;10778;48.962;9.018;2023-04-01T12:02:48;97769.22;;;9.98;77.11
21240;BME280;10778;48.962;9.018;2023-04-01T12:05:58;97745.75;;;9.96;77.40
21240;BME280;10778;48.962;9.018;2023-04-01T12:08:37;97762.16;;;10.06;78.28
21240;BME280;10778;48.962;9.018;2023-04-01T12:11:23;97759.19;;;10.09;78.18
21240;BME280;10778;48.962;9.018;2023-04-01T12:14:03;97762.00;;;10.08;77.47
21240;BME280;10778;48.962;9.018;2023-04-01T12:27:34;97759.31;;;10.16;76.46
21240;BME280;10778;48.962;9.018;2023-04-01T12:40:51;97754.06;;;10.24;76.62
21240;BME280;10778;48.962;9.018;2023-04-01T12:52:05;97771.53;;;9.84;80.25
21240;BME280;10778;48.962;9.018;2023-04-01T12:55:43;97779.44;;;9.76;81.87
21240;BME280;10778;48.962;9.018;2023-04-01T13:09:24;97805.00;;;9.32;87.50
21240;BME280;10778;48.962;9.018;2023-04-01T13:25:36;97800.56;;;9.08;91.14
21240;BME280;10778;48.962;9.018;2023-04-01T13:28:24;97805.69;;;9.18;90.43
21240;BME280;10778;48.962;9.018;2023-04-01T13:33:47;97819.59;;;9.18;90.32
21240;BME280;10778;48.962;9.018;2023-04-01T13:38:54;97809.56;;;9.14;89.37
21240;BME280;10778;48.962;9.018;2023-04-01T13:44:35;97832.47;;;8.87;90.90
21240;BME280;10778;48.962;9.018;2023-04-01T13:50:07;97831.44;;;8.79;92.16
21240;BME280;10778;48.962;9.018;2023-04-01T14:01:46;97848.88;;;8.97;92.23
21240;BME280;10778;48.962;9.018;2023-04-01T14:04:42;97850.22;;;9.01;90.69
21240;BME280;10778;48.962;9.018;2023-04-01T14:10:23;97840.88;;;8.99;88.45
21240;BME280;10778;48.962;9.018;2023-04-01T14:19:44;97820.28;;;9.29;88.58
21240;BME280;10778;48.962;9.018;2023-04-01T14:32:51;97839.09;;;9.07;87.64
21240;BME280;10778;48.962;9.018;2023-04-01T14:40:55;97848.00;;;9.23;89.06
21240;BME280;10778;48.962;9.018;2023-04-01T14:43:54;97856.84;;;9.22;89.00
21240;BME280;10778;48.962;9.018;2023-04-01T14:52:16;97855.88;;;9.31;87.63
21240;BME280;10778;48.962;9.018;2023-04-01T14:54:48;97858.81;;;9.28;86.92
21240;BME280;10778;48.962;9.018;2023-04-01T14:57:24;97847.19;;;9.31;86.55
21240;BME280;10778;48.962;9.018;2023-04-01T15:03:01;97851.44;;;9.32;85.41
21240;BME280;10778;48.962;9.018;2023-04-01T15:13:40;97858.84;;;9.36;86.03
21240;BME280;10778;48.962;9.018;2023-04-01T15:19:17;97853.75;;;9.35;84.44
21240;BME280;10778;48.962;9.018;2023-04-01T15:30:32;97874.31;;;9.56;84.56
21240;BME280;10778;48.962;9.018;2023-04-01T15:50:06;97864.13;;;9.61;82.61
21240;BME280;10778;48.962;9.018;2023-04-01T15:55:50;97878.72;;;9.56;83.80
21240;BME280;10778;48.962;9.018;2023-04-01T16:03:37;97883.50;;;9.52;82.64
21240;BME280;10778;48.962;9.018;2023-04-01T16:11:43;97886.44;;;9.65;82.64
21240;BME280;10778;48.962;9.018;2023-04-01T16:14:57;97874.81;;;9.60;82.37
21240;BME280;10778;48.962;9.018;2023-04-01T16:17:44;97889.88;;;9.58;82.24
21240;BME280;10778;48.962;9.018;2023-04-01T16:20:18;97893.19;;;9.60;82.15
21240;BME280;10778;48.962;9.018;2023-04-01T16:22:56;97892.03;;;9.54;82.67
21240;BME280;10778;48.962;9.018;2023-04-01T16:25:36;97892.03;;;9.54;81.40
21240;BME280;10778;48.962;9.018;2023-04-01T16:28:24;97893.50;;;9.57;82.01
21240;BME280;10778;48.962;9.018;2023-04-01T16:31:25;97887.44;;;9.56;82.81
21240;BME280;10778;48.962;9.018;2023-04-01T16:34:14;97894.97;;;9.51;82.86
21240;BME280;10778;48.962;9.018;2023-04-01T16:36:47;97890.53;;;9.51;82.44
21240;BME280;10778;48.962;9.018;2023-04-01T16:44:29;97894.16;;;9.50;83.17
21240;BME280;10778;48.962;9.018;2023-04-01T16:46:58;97887.72;;;9.45;82.59
21240;BME280;10778;48.962;9.018;2023-04-01T16:57:16;97895.78;;;9.51;82.62
21240;BME280;10778;48.962;9.018;2023-04-01T16:59:48;97894.66;;;9.54;81.74
21240;BME280;10778;48.962;9.018;2023-04-01T17:02:25;97906.94;;;9.45;82.11
21240;BME280;10778;48.962;9.018;2023-04-01T17:05:11;97905.13;;;9.46;81.76
21240;BME280;10778;48.962;9.018;2023-04-01T17:08:34;97909.72;;;9.44;82.34
21240;BME280;10778;48.962;9.018;2023-04-01T17:10:53;97910.03;;;9.41;83.65
21240;BME280;10778;48.962;9.018;2023-04-01T17:27:51;97955.97;;;9.36;85.44
21240;BME280;10778;48.962;9.018;2023-04-01T17:41:17;97969.09;;;9.02;89.18
21240;BME280;10778;48.962;9.018;2023-04-01T17:44:03;97975.13;;;8.94;87.67
21240;BME280;10778;48.962;9.018;2023-04-01T17:49:39;97983.56;;;8.79;87.17
21240;BME280;10778;48.962;9.018;2023-04-01T17:52:16;97989.56;;;8.72;87.87
21240;BME280;10778;48.962;9.018;2023-04-01T17:57:34;97984.63;;;8.68;87.39
21240;BME280;10778;48.962;9.018;2023-04-01T18:06:03;98006.22;;;8.62;87.03
21240;BME280;10778;48.962;9.018;2023-04-01T18:11:34;98010.41;;;8.55;87.84
21240;BME280;10778;48.962;9.018;2023-04-01T18:19:30;98016.81;;;8.52;88.96
21240;BME280;10778;48.962;9.018;2023-04-01T18:22:26;98002.06;;;8.51;89.12
21240;BME280;10778;48.962;9.018;2023-04-01T18:27:45;98010.59;;;8.53;90.30
21240;BME280;10778;48.962;9.018;2023-04-01T18:30:15;98017.09;;;8.49;90.07
21240;BME280;10778;48.962;9.018;2023-04-01T18:35:21;98026.22;;;8.45;90.50
21240;BME280;10778;48.962;9.018;2023-04-01T18:40:39;98031.31;;;8.47;89.88
21240;BME280;10778;48.962;9.018;2023-04-01T18:43:22;98033.41;;;8.43;89.69
21240;BME280;10778;48.962;9.018;2023-04-01T18:45:54;98041.25;;;8.43;89.77
21240;BME280;10778;48.962;9.018;2023-04-01T18:50:58;98034.16;;;8.35;89.94
21240;BME280;10778;48.962;9.018;2023-04-01T18:56:03;98048.38;;;8.15;91.64
21240;BME280;10778;48.962;9.018;2023-04-01T18:58:34;98054.34;;;8.07;92.66
21240;BME280;10778;48.962;9.018;2023-04-01T19:01:17;98054.34;;;8.07;92.22
21240;BME280;10778;48.962;9.018;2023-04-01T19:03:58;98062.94;;;7.99;92.62
21240;BME280;10778;48.962;9.018;2023-04-01T19:06:34;98069.31;;;7.96;93.69
21240;BME280;10778;48.962;9.018;2023-04-01T19:09:31;98076.94;;;7.90;94.04
21240;BME280;10778;48.962;9.018;2023-04-01T19:12:27;98063.84;;;7.90;94.50
21240;BME280;10778;48.962;9.018;2023-04-01T19:26:13;98076.06;;;7.71;97.01
21240;BME280;10778;48.962;9.018;2023-04-01T19:28:53;98073.88;;;7.66;96.81
21240;BME280;10778;48.962;9.018;2023-04-01T19:34:06;98083.25;;;7.59;97.08
21240;BME280;10778;48.962;9.018;2023-04-01T19:42:18;98081.16;;;7.45;98.86
21240;BME280;10778;48.962;9.018;2023-04-01T19:45:04;98089.53;;;7.38;98.53
21240;BME280;10778;48.962;9.018;2023-04-01T19:50:30;98084.47;;;7.37;98.99
21240;BME280;10778;48.962;9.018;2023-04-01T19:53:18;98086.81;;;7.30;99.85
21240;BME280;10778;48.962;9.018;2023-04-01T19:56:07;98097.72;;;7.25;99.52
21240;BME280;10778;48.962;9.018;2023-04-01T19:58:58;98091.81;;;7.23;99.76
21240;BME280;10778;48.962;9.018;2023-04-01T20:01:41;98101.84;;;7.18;100.00
21240;BME280;10778;48.962;9.018;2023-04-01T20:04:25;98106.56;;;7.15;100.00
21240;BME280;10778;48.962;9.018;2023-04-01T20:12:09;98112.72;;;7.23;100.00
21240;BME280;10778;48.962;9.018;2023-04-01T20:14:45;98111.22;;;7.21;100.00
21240;BME280;10778;48.962;9.018;2023-04-01T20:17:24;98117.13;;;7.23;100.00
21240;BME280;10778;48.962;9.018;2023-04-01T20:25:26;98121.63;;;7.40;99.49
21240;BME280;10778;48.962;9.018;2023-04-01T20:28:04;98133.91;;;7.40;99.44
21240;BME280;10778;48.962;9.018;2023-04-01T20:31:07;98128.25;;;7.45;99.27
21240;BME280;10778;48.962;9.018;2023-04-01T20:48:04;98138.94;;;7.51;99.30
21240;BME280;10778;48.962;9.018;2023-04-01T20:50:57;98145.13;;;7.60;98.99
21240;BME280;10778;48.962;9.018;2023-04-01T20:53:42;98144.72;;;7.55;99.50
21240;BME280;10778;48.962;9.018;2023-04-01T20:56:36;98157.53;;;7.58;98.77
21240;BME280;10778;48.962;9.018;2023-04-01T21:05:00;98157.66;;;7.66;99.51
21240;BME280;10778;48.962;9.018;2023-04-01T21:39:19;98185.03;;;8.10;92.59
21240;BME280;10778;48.962;9.018;2023-04-01T21:50:41;98201.06;;;8.07;93.22
21240;BME280;10778;48.962;9.018;2023-04-01T21:56:37;98197.88;;;8.03;92.98
21240;BME280;10778;48.962;9.018;2023-04-01T22:02:34;98207.41;;;8.04;93.44
21240;BME280;10778;48.962;9.018;2023-04-01T22:08:08;98211.16;;;8.02;93.92
21240;BME280;10778;48.962;9.018;2023-04-01T22:11:06;98208.25;;;8.05;93.41
21240;BME280;10778;48.962;9.018;2023-04-01T22:13:59;98214.06;;;7.99;93.48
21240;BME280;10778;48.962;9.018;2023-04-01T22:16:39;98203.72;;;7.97;94.24
21240;BME280;10778;48.962;9.018;2023-04-01T22:19:16;98216.13;;;7.95;94.51
21240;BME280;10778;48.962;9.018;2023-04-01T22:22:01;98210.91;;;7.95;94.61
21240;BME280;10778;48.962;9.018;2023-04-01T22:27:37;98218.88;;;7.93;94.62
21240;BME280;10778;48.962;9.018;2023-04-01T22:30:15;98214.59;;;8.02;94.24
21240;BME280;10778;48.962;9.018;2023-04-01T22:32:52;98214.59;;;8.02;93.75
21240;BME280;10778;48.962;9.018;2023-04-01T22:43:37;98216.97;;;7.86;99.11
21240;BME280;10778;48.962;9.018;2023-04-01T22:51:43;98228.06;;;7.69;100.00
21240;BME280;10778;48.962;9.018;2023-04-01T22:54:21;98226.81;;;7.64;100.00
21240;BME280;10778;48.962;9.018;2023-04-01T22:56:55;98227.09;;;7.61;100.00
21240;BME280;10778;48.962;9.018;2023-04-01T22:59:39;98228.75;;;7.62;100.00
21240;BME280;10778;48.962;9.018;2023-04-01T23:02:18;98232.06;;;7.64;100.00
21240;BME280;10778;48.962;9.018;2023-04-01T23:04:53;98231.66;;;7.59;100.00
21240;BME280;10778;48.962;9.018;2023-04-01T23:07:58;98237.72;;;7.59;100.00
21240;BME280;10778;48.962;9.018;2023-04-01T23:10:40;98243.38;;;7.54;100.00
21240;BME280;10778;48.962;9.018;2023-04-01T23:13:22;98243.38;;;7.54;100.00
21240;BME280;10778;48.962;9.018;2023-04-01T23:15:51;98242.41;;;7.65;100.00
21240;BME280;10778;48.962;9.018;2023-04-01T23:21:09;98246.25;;;7.61;100.00
21240;BME280;10778;48.962;9.018;2023-04-01T23:26:19;98245.03;;;7.65;99.78
21240;BME280;10778;48.962;9.018;2023-04-01T23:28:54;98248.88;;;7.71;99.20
21240;BME280;10778;48.962;9.018;2023-04-01T23:31:28;98248.03;;;7.71;98.83
21240;BME280;10778;48.962;9.018;2023-04-01T23:33:57;98254.09;;;7.71;99.74